Time;durP1;ratioP1;P1;durP2;ratioP2;P2;SDS_P1;SDS_P2;PMS_P1;PMS_P2;Temp;Humidity;BMP_temperature;BMP_pressure;BME280_temperature;BME280_humidity;BME280_pressure;Samples;Min_cycle;Max_cycle;Signal;HPM_P1;HPM_P2
2023/10/22 00:01:32;;;;;;;0.00;0.00;;;12.50;99.90;;;;;;5090460;28;20202;-62
2023/10/22 00:03:57;;;;;;;0.00;0.00;;;12.50;99.90;;;;;;5090119;28;20172;-62
2023/10/22 00:06:23;;;;;;;0.00;0.00;;;12.50;99.90;;;;;;5091147;28;20180;-62
2023/10/22 00:08:48;;;;;;;0.00;0.00;;;12.50;99.90;;;;;;5091248;28;20172;-62
2023/10/22 00:11:14;;;;;;;0.00;0.00;;;12.40;99.90;;;;;;5091373;28;20227;-62
2023/10/22 00:13:39;;;;;;;0.00;0.00;;;12.40;99.90;;;;;;5089408;28;20192;-62
2023/10/22 00:16:05;;;;;;;0.00;0.00;;;12.40;99.90;;;;;;5077964;28;20187;-62
2023/10/22 00:18:30;;;;;;;0.00;0.00;;;12.30;99.90;;;;;;5090001;28;20180;-62
2023/10/22 00:20:56;;;;;;;0.00;0.00;;;12.30;99.90;;;;;;5091412;28;20180;-61
2023/10/22 00:23:21;;;;;;;0.00;0.00;;;12.30;99.90;;;;;;5090810;28;20531;-61
2023/10/22 00:25:48;;;;;;;0.00;0.00;;;12.20;99.90;;;;;;5090325;28;20176;-62
2023/10/22 00:28:13;;;;;;;0.00;0.00;;;12.10;99.90;;;;;;5091167;28;20207;-62
2023/10/22 00:30:39;;;;;;;0.00;0.00;;;12.10;99.90;;;;;;5091030;28;20360;-62
2023/10/22 00:33:05;;;;;;;0.10;0.10;;;12.00;99.90;;;;;;5090585;28;20744;-62
2023/10/22 00:35:30;;;;;;;0.00;0.00;;;12.00;99.90;;;;;;5090408;28;20176;-62
2023/10/22 00:37:56;;;;;;;0.00;0.00;;;12.00;99.90;;;;;;5091056;28;20172;-62
2023/10/22 00:40:22;;;;;;;0.00;0.00;;;11.90;99.90;;;;;;5091099;28;20168;-62
2023/10/22 00:42:48;;;;;;;0.00;0.00;;;11.90;99.90;;;;;;5090664;28;20203;-62
2023/10/22 00:45:13;;;;;;;0.00;0.00;;;11.90;99.90;;;;;;5091365;28;20180;-62
2023/10/22 00:47:39;;;;;;;0.00;0.00;;;11.80;99.90;;;;;;5088774;28;20282;-62
2023/10/22 00:50:06;;;;;;;0.00;0.00;;;11.80;99.90;;;;;;5090825;28;20678;-61
2023/10/22 00:52:32;;;;;;;0.00;0.00;;;11.80;99.90;;;;;;5090575;28;20222;-62
2023/10/22 00:54:58;;;;;;;0.00;0.00;;;11.70;99.90;;;;;;5090731;28;20586;-62
2023/10/22 00:57:24;;;;;;;0.00;0.00;;;11.70;99.90;;;;;;5090506;28;20659;-63
2023/10/22 00:59:52;;;;;;;0.03;0.03;;;11.40;99.90;;;;;;5090252;28;20275;-62
2023/10/22 01:02:19;;;;;;;0.00;0.00;;;11.60;99.90;;;;;;5089590;28;20229;-63
2023/10/22 01:04:45;;;;;;;0.00;0.00;;;11.60;99.90;;;;;;5090751;28;20489;-62
2023/10/22 01:07:11;;;;;;;0.00;0.00;;;11.60;99.90;;;;;;5089852;28;20176;-63
2023/10/22 01:09:37;;;;;;;0.00;0.00;;;11.60;99.90;;;;;;5090089;28;20191;-62
2023/10/22 01:12:04;;;;;;;0.00;0.00;;;11.50;99.90;;;;;;5090267;28;20349;-62
2023/10/22 01:14:30;;;;;;;0.00;0.00;;;11.50;99.90;;;;;;5090543;28;20179;-62
2023/10/22 01:16:56;;;;;;;0.00;0.00;;;11.50;99.90;;;;;;5090457;28;20191;-63
2023/10/22 01:19:22;;;;;;;0.00;0.00;;;11.50;99.90;;;;;;5089100;28;20172;-62
2023/10/22 01:21:48;;;;;;;0.00;0.00;;;11.40;99.90;;;;;;5089611;28;20191;-62
2023/10/22 01:24:13;;;;;;;0.00;0.00;;;11.40;99.90;;;;;;5091156;28;20179;-62
2023/10/22 01:26:43;;;;;;;0.00;0.00;;;11.40;99.90;;;;;;5090879;28;20279;-62
2023/10/22 01:29:08;;;;;;;0.00;0.00;;;11.30;99.90;;;;;;5090531;28;20180;-62
2023/10/22 01:31:34;;;;;;;0.00;0.00;;;11.30;99.90;;;;;;5090324;28;20212;-62
2023/10/22 01:34:00;;;;;;;0.00;0.00;;;11.30;99.90;;;;;;5090380;28;20187;-62
2023/10/22 01:36:25;;;;;;;0.00;0.00;;;11.30;99.90;;;;;;5072228;28;20188;-62
2023/10/22 01:38:51;;;;;;;0.00;0.00;;;11.30;99.90;;;;;;5091118;28;20264;-62
2023/10/22 01:41:16;;;;;;;0.00;0.00;;;11.30;99.90;;;;;;5090800;28;20230;-63
2023/10/22 01:43:42;;;;;;;0.00;0.00;;;11.20;99.90;;;;;;5089995;28;20532;-62
2023/10/22 01:46:07;;;;;;;0.00;0.00;;;11.20;99.90;;;;;;5090425;28;20188;-62
2023/10/22 01:48:33;;;;;;;0.00;0.00;;;11.20;99.90;;;;;;5090494;28;20183;-61
2023/10/22 01:50:58;;;;;;;0.00;0.00;;;11.10;99.90;;;;;;5090274;28;20222;-61
2023/10/22 01:53:24;;;;;;;0.00;0.00;;;11.10;99.90;;;;;;5090522;28;20758;-61
2023/10/22 01:55:50;;;;;;;0.00;0.00;;;11.10;99.90;;;;;;5090146;28;20188;-60
2023/10/22 01:58:16;;;;;;;0.00;0.00;;;11.10;99.90;;;;;;5090655;28;20511;-61
2023/10/22 02:00:41;;;;;;;0.00;0.00;;;11.20;99.90;;;;;;5088895;28;20247;-61
2023/10/22 02:03:07;;;;;;;0.10;0.10;;;11.20;99.90;;;;;;5090442;28;20184;-61
2023/10/22 02:05:36;;;;;;;0.00;0.00;;;11.20;99.90;;;;;;5090461;28;20678;-61
2023/10/22 02:08:02;;;;;;;0.00;0.00;;;11.20;99.90;;;;;;5089385;28;20180;-61
2023/10/22 02:10:28;;;;;;;0.08;0.08;;;11.20;99.90;;;;;;5090182;28;20203;-61
2023/10/22 02:12:53;;;;;;;0.00;0.00;;;11.20;99.90;;;;;;5091764;28;20188;-62
2023/10/22 02:15:19;;;;;;;0.00;0.00;;;11.10;99.90;;;;;;5094092;28;20271;-61
2023/10/22 02:17:44;;;;;;;0.00;0.00;;;11.10;99.90;;;;;;5093384;28;20579;-61
2023/10/22 02:20:10;;;;;;;0.00;0.00;;;11.10;99.90;;;;;;5093697;28;20168;-62
2023/10/22 02:22:39;;;;;;;0.00;0.00;;;11.00;99.90;;;;;;5094102;28;20643;-62
2023/10/22 02:25:06;;;;;;;0.00;0.00;;;11.00;99.90;;;;;;5094101;28;20759;-62
2023/10/22 02:27:32;;;;;;;0.00;0.00;;;11.00;99.90;;;;;;5093983;28;20178;-61
2023/10/22 02:29:58;;;;;;;0.00;0.00;;;11.00;99.90;;;;;;5093588;28;20216;-62
2023/10/22 02:32:23;;;;;;;0.00;0.00;;;11.00;99.90;;;;;;5093607;28;20259;-62
2023/10/22 02:34:49;;;;;;;0.20;0.20;;;11.00;99.90;;;;;;5093654;28;20180;-62
2023/10/22 02:37:15;;;;;;;0.00;0.00;;;11.00;99.90;;;;;;5092438;28;20184;-61
2023/10/22 02:39:40;;;;;;;0.00;0.00;;;11.00;99.90;;;;;;5093748;28;20671;-61
2023/10/22 02:42:07;;;;;;;0.00;0.00;;;11.00;99.90;;;;;;5093220;28;20192;-61
2023/10/22 02:44:33;;;;;;;0.00;0.00;;;11.10;99.90;;;;;;5093621;28;20229;-61
2023/10/22 02:46:59;;;;;;;0.00;0.00;;;11.00;99.90;;;;;;5091951;28;20176;-61
2023/10/22 02:49:25;;;;;;;0.00;0.00;;;11.10;99.90;;;;;;5093341;28;20994;-62
2023/10/22 02:51:51;;;;;;;0.00;0.00;;;11.00;99.90;;;;;;5093047;28;20215;-61
2023/10/22 02:54:16;;;;;;;0.00;0.00;;;11.00;99.90;;;;;;5093175;28;20177;-62
2023/10/22 02:56:42;;;;;;;0.00;0.00;;;11.00;99.90;;;;;;5091916;28;20643;-61
2023/10/22 02:59:08;;;;;;;0.00;0.00;;;11.00;99.90;;;;;;5093064;28;20678;-61
2023/10/22 03:01:33;;;;;;;0.00;0.00;;;11.00;99.90;;;;;;5091913;28;20257;-61
2023/10/22 03:03:59;;;;;;;0.00;0.00;;;10.90;99.90;;;;;;5092756;28;20180;-61
2023/10/22 03:06:24;;;;;;;0.00;0.00;;;10.90;99.90;;;;;;5093208;28;20621;-62
2023/10/22 03:08:50;;;;;;;0.00;0.00;;;10.90;99.90;;;;;;5093232;28;20180;-61
2023/10/22 03:11:17;;;;;;;0.00;0.00;;;10.80;99.90;;;;;;5092937;28;20277;-61
2023/10/22 03:13:43;;;;;;;0.00;0.00;;;10.80;99.90;;;;;;5093059;28;20184;-62
2023/10/22 03:16:11;;;;;;;0.00;0.00;;;10.70;99.90;;;;;;5092370;28;20233;-63
2023/10/22 03:18:37;;;;;;;0.00;0.00;;;10.70;99.90;;;;;;5092883;28;20183;-63
2023/10/22 03:21:16;;;;;;;0.00;0.00;;;10.70;99.90;;;;;;5092556;28;20176;-62
2023/10/22 03:23:42;;;;;;;0.00;0.00;;;10.60;99.90;;;;;;5092511;28;20180;-63
2023/10/22 03:26:11;;;;;;;0.00;0.00;;;10.60;99.90;;;;;;5091859;28;20194;-63
2023/10/22 03:28:37;;;;;;;0.00;0.00;;;10.60;99.90;;;;;;5092655;28;20195;-63
2023/10/22 03:31:06;;;;;;;0.00;0.00;;;10.50;99.90;;;;;;5092610;28;20215;-63
2023/10/22 03:33:32;;;;;;;0.00;0.00;;;10.50;99.90;;;;;;5091249;28;20629;-62
2023/10/22 03:35:58;;;;;;;0.00;0.00;;;10.50;99.90;;;;;;5092233;28;20184;-62
2023/10/22 03:38:24;;;;;;;0.00;0.00;;;10.50;99.90;;;;;;5091413;28;20214;-63
2023/10/22 03:41:02;;;;;;;0.00;0.00;;;10.40;99.90;;;;;;5092663;28;20544;-62
2023/10/22 03:43:28;;;;;;;0.00;0.00;;;10.50;99.90;;;;;;5092275;28;20184;-62
2023/10/22 03:45:54;;;;;;;0.00;0.00;;;10.50;99.90;;;;;;5092251;28;20180;-61
2023/10/22 03:48:19;;;;;;;0.00;0.00;;;10.40;99.90;;;;;;5076280;28;20634;-62
2023/10/22 03:50:45;;;;;;;0.00;0.00;;;10.50;99.90;;;;;;5092069;28;20294;-61
2023/10/22 03:53:11;;;;;;;0.00;0.00;;;10.50;99.90;;;;;;5091051;28;20232;-61
2023/10/22 03:55:36;;;;;;;0.00;0.00;;;10.50;99.90;;;;;;5092100;28;20207;-61
2023/10/22 03:58:02;;;;;;;0.00;0.00;;;10.50;99.90;;;;;;5091809;28;20545;-61
2023/10/22 04:00:28;;;;;;;0.00;0.00;;;10.40;99.90;;;;;;5091939;28;20180;-62
2023/10/22 04:02:53;;;;;;;0.00;0.00;;;10.40;99.90;;;;;;5092274;28;20184;-61
2023/10/22 04:05:19;;;;;;;0.00;0.00;;;10.40;99.90;;;;;;5092003;28;20176;-61
2023/10/22 04:07:44;;;;;;;0.00;0.00;;;10.40;99.90;;;;;;5092042;28;20582;-61
2023/10/22 04:10:10;;;;;;;0.00;0.00;;;10.40;99.90;;;;;;5091469;28;20558;-61
2023/10/22 04:12:36;;;;;;;0.00;0.00;;;10.40;99.90;;;;;;5091768;28;20570;-61
2023/10/22 04:15:03;;;;;;;0.00;0.00;;;10.40;99.90;;;;;;5091478;28;20176;-60
2023/10/22 04:17:29;;;;;;;0.00;0.00;;;10.40;99.90;;;;;;5097105;28;20183;-61
2023/10/22 04:19:55;;;;;;;0.00;0.00;;;10.40;99.90;;;;;;5094088;27;20169;-61
2023/10/22 04:22:21;;;;;;;0.63;0.32;;;10.40;99.90;;;;;;5090958;28;20187;-61
2023/10/22 04:24:47;;;;;;;0.00;0.00;;;10.30;99.90;;;;;;5091394;28;20180;-61
2023/10/22 04:27:13;;;;;;;0.00;0.00;;;10.30;99.90;;;;;;5091590;28;20295;-61
2023/10/22 04:29:38;;;;;;;0.00;0.00;;;10.20;99.90;;;;;;5091626;28;20275;-61
2023/10/22 04:32:05;;;;;;;0.00;0.00;;;10.20;99.90;;;;;;5091040;28;20285;-62
2023/10/22 04:34:32;;;;;;;0.00;0.00;;;10.20;99.90;;;;;;5075566;28;20188;-62
2023/10/22 04:36:58;;;;;;;0.00;0.00;;;10.20;99.90;;;;;;5091395;28;20176;-61
2023/10/22 04:39:24;;;;;;;0.00;0.00;;;10.10;99.90;;;;;;5090050;28;20179;-61
2023/10/22 04:41:50;;;;;;;0.00;0.00;;;10.10;99.90;;;;;;5091378;28;20176;-62
2023/10/22 04:44:16;;;;;;;0.00;0.00;;;10.10;99.90;;;;;;5089578;28;20282;-62
2023/10/22 04:46:41;;;;;;;0.00;0.00;;;10.10;99.90;;;;;;5091045;28;20186;-62
2023/10/22 04:49:07;;;;;;;0.00;0.00;;;10.00;99.90;;;;;;5091239;28;20213;-61
2023/10/22 04:51:32;;;;;;;0.00;0.00;;;10.00;99.90;;;;;;5091342;28;20246;-61
2023/10/22 04:53:58;;;;;;;0.00;0.00;;;10.00;99.90;;;;;;5091277;28;20190;-61
2023/10/22 04:56:23;;;;;;;0.00;0.00;;;10.00;99.90;;;;;;5089611;28;20548;-61
2023/10/22 04:58:49;;;;;;;0.00;0.00;;;9.90;99.90;;;;;;5089878;28;20191;-61
2023/10/22 05:01:15;;;;;;;0.00;0.00;;;9.90;99.90;;;;;;5090947;28;20237;-61
2023/10/22 05:03:40;;;;;;;0.00;0.00;;;9.90;99.90;;;;;;5091054;28;20180;-61
2023/10/22 05:06:06;;;;;;;0.00;0.00;;;9.90;99.90;;;;;;5090591;28;20176;-61
2023/10/22 05:08:34;;;;;;;0.00;0.00;;;9.80;99.90;;;;;;5090722;28;20176;-62
2023/10/22 05:11:00;;;;;;;0.00;0.00;;;9.80;99.90;;;;;;5090719;28;20253;-62
2023/10/22 05:13:25;;;;;;;0.00;0.00;;;9.80;99.90;;;;;;5090661;28;20271;-62
2023/10/22 05:15:56;;;;;;;0.00;0.00;;;9.80;99.90;;;;;;5090919;28;20754;-62
2023/10/22 05:18:22;;;;;;;0.00;0.00;;;9.80;99.90;;;;;;5089266;28;20217;-62
2023/10/22 05:20:48;;;;;;;0.00;0.00;;;9.80;99.90;;;;;;5090858;28;20237;-62
2023/10/22 05:23:14;;;;;;;0.00;0.00;;;9.80;99.90;;;;;;5090816;28;20172;-61
2023/10/22 05:25:41;;;;;;;0.00;0.00;;;9.80;99.90;;;;;;5090663;28;20176;-61
2023/10/22 05:28:06;;;;;;;0.00;0.00;;;9.80;99.90;;;;;;5090482;28;20210;-61
2023/10/22 05:30:32;;;;;;;0.00;0.00;;;9.70;99.90;;;;;;5090228;28;20240;-62
2023/10/22 05:32:57;;;;;;;0.00;0.00;;;9.80;99.90;;;;;;5090509;28;20243;-61
2023/10/22 05:35:23;;;;;;;0.00;0.00;;;9.70;99.90;;;;;;5090717;28;20168;-62
2023/10/22 05:37:51;;;;;;;0.03;0.03;;;9.70;99.90;;;;;;5090757;28;20188;-62
2023/10/22 05:40:16;;;;;;;0.00;0.00;;;9.70;99.90;;;;;;5090079;28;20165;-62
2023/10/22 05:42:42;;;;;;;0.00;0.00;;;9.70;99.90;;;;;;5090702;28;20237;-62
2023/10/22 05:45:09;;;;;;;0.05;0.05;;;9.70;99.90;;;;;;5090621;28;20602;-63
2023/10/22 05:47:35;;;;;;;0.00;0.00;;;9.60;99.90;;;;;;5091487;28;20192;-62
2023/10/22 05:50:01;;;;;;;0.00;0.00;;;9.60;99.90;;;;;;5094816;28;20270;-62
2023/10/22 05:52:28;;;;;;;0.00;0.00;;;9.60;99.90;;;;;;5094021;28;20215;-63
2023/10/22 05:54:54;;;;;;;0.00;0.00;;;9.60;99.90;;;;;;5094144;28;20180;-62
2023/10/22 05:57:21;;;;;;;0.00;0.00;;;9.50;99.90;;;;;;5094286;28;20577;-62
2023/10/22 05:59:47;;;;;;;0.00;0.00;;;9.50;99.90;;;;;;5094486;28;20561;-61
2023/10/22 06:02:12;;;;;;;0.00;0.00;;;9.40;99.90;;;;;;5093975;28;20240;-62
2023/10/22 06:04:38;;;;;;;0.00;0.00;;;9.40;99.90;;;;;;5093462;28;20634;-61
2023/10/22 06:07:04;;;;;;;0.00;0.00;;;9.40;99.90;;;;;;5094035;28;20542;-62
2023/10/22 06:09:29;;;;;;;0.00;0.00;;;9.40;99.90;;;;;;5094189;28;20184;-61
2023/10/22 06:11:55;;;;;;;0.00;0.00;;;9.40;99.90;;;;;;5093794;28;20216;-62
2023/10/22 06:14:21;;;;;;;0.00;0.00;;;9.50;99.90;;;;;;5093566;28;20180;-62
2023/10/22 06:16:46;;;;;;;0.00;0.00;;;9.50;99.90;;;;;;5094252;28;20188;-61
2023/10/22 06:19:13;;;;;;;0.00;0.00;;;9.50;99.90;;;;;;5093282;28;20172;-62
2023/10/22 06:21:38;;;;;;;0.00;0.00;;;9.50;99.90;;;;;;5092418;28;20176;-62
2023/10/22 06:24:05;;;;;;;0.00;0.00;;;9.50;99.90;;;;;;5094029;28;20639;-62
2023/10/22 06:26:30;;;;;;;0.00;0.00;;;9.60;99.90;;;;;;5093528;28;20646;-61
2023/10/22 06:28:56;;;;;;;0.00;0.00;;;9.60;99.90;;;;;;5093946;28;20186;-62
2023/10/22 06:31:23;;;;;;;0.00;0.00;;;9.60;99.90;;;;;;5092351;28;20207;-62
2023/10/22 06:33:48;;;;;;;0.20;0.20;;;9.70;99.90;;;;;;5093674;28;20243;-62
2023/10/22 06:36:22;;;;;;;0.00;0.00;;;9.70;99.90;;;;;;5093683;28;20219;-62
2023/10/22 06:38:48;;;;;;;0.00;0.00;;;9.70;99.90;;;;;;5089975;28;20183;-62
2023/10/22 06:41:21;;;;;;;0.00;0.00;;;9.80;99.90;;;;;;5093631;28;20192;-62
2023/10/22 06:43:47;;;;;;;0.10;0.10;;;9.80;99.90;;;;;;5093637;28;20542;-62
2023/10/22 06:46:14;;;;;;;0.00;0.00;;;9.90;99.90;;;;;;5093661;28;20184;-62
2023/10/22 06:48:39;;;;;;;0.17;0.10;;;10.00;99.90;;;;;;5093009;28;21678;-63
2023/10/22 06:51:12;;;;;;;0.00;0.00;;;10.10;99.90;;;;;;5093210;28;20200;-62
2023/10/22 06:53:38;;;;;;;0.00;0.00;;;10.10;99.90;;;;;;5093011;28;20210;-62
2023/10/22 06:56:05;;;;;;;0.00;0.00;;;10.20;99.90;;;;;;5093540;28;20188;-62
2023/10/22 06:58:32;;;;;;;0.00;0.00;;;10.40;99.90;;;;;;5092392;28;20183;-62
2023/10/22 07:01:09;;;;;;;0.00;0.00;;;10.70;99.90;;;;;;5091677;28;20447;-63
2023/10/22 07:03:35;;;;;;;0.00;0.00;;;11.20;99.90;;;;;;5093212;28;20541;-63
2023/10/22 07:06:01;;;;;;;0.00;0.00;;;11.80;99.90;;;;;;5093387;28;20259;-63
2023/10/22 07:08:28;;;;;;;0.10;0.10;;;12.50;99.90;;;;;;5092541;28;20638;-62
2023/10/22 07:10:53;;;;;;;0.00;0.00;;;13.10;99.90;;;;;;5077064;28;20292;-62
2023/10/22 07:13:20;;;;;;;0.00;0.00;;;13.70;99.90;;;;;;5093131;28;20299;-63
2023/10/22 07:15:49;;;;;;;0.00;0.00;;;14.20;99.90;;;;;;5093029;28;20179;-63
2023/10/22 07:18:14;;;;;;;0.00;0.00;;;14.70;99.90;;;;;;5091621;28;20183;-63
2023/10/22 07:20:40;;;;;;;0.00;0.00;;;15.20;99.90;;;;;;5092162;28;20184;-63
2023/10/22 07:23:06;;;;;;;0.00;0.00;;;15.70;99.90;;;;;;5090485;28;20172;-61
2023/10/22 07:25:32;;;;;;;0.00;0.00;;;16.10;99.90;;;;;;5092013;28;20208;-64
2023/10/22 07:27:58;;;;;;;0.00;0.00;;;16.50;99.80;;;;;;5092608;28;20259;-63
2023/10/22 07:30:23;;;;;;;0.00;0.00;;;17.00;98.60;;;;;;5092213;28;20664;-63
2023/10/22 07:32:51;;;;;;;0.10;0.10;;;17.30;97.60;;;;;;5092132;28;20224;-63
2023/10/22 07:35:17;;;;;;;0.00;0.00;;;17.30;97.10;;;;;;5092197;28;20180;-63
2023/10/22 07:37:44;;;;;;;0.00;0.00;;;17.60;97.10;;;;;;5092448;28;20222;-64
2023/10/22 07:40:11;;;;;;;0.00;0.00;;;17.80;96.70;;;;;;5092654;28;20184;-64
2023/10/22 07:42:37;;;;;;;0.00;0.00;;;18.00;95.70;;;;;;5092385;28;20519;-65
2023/10/22 07:45:02;;;;;;;0.00;0.00;;;18.20;95.80;;;;;;5092033;28;20249;-66
2023/10/22 07:47:29;;;;;;;0.00;0.00;;;18.40;94.90;;;;;;5092584;28;20192;-65
2023/10/22 07:49:54;;;;;;;0.00;0.00;;;18.60;94.90;;;;;;5092373;28;20172;-64
2023/10/22 07:52:20;;;;;;;0.00;0.00;;;18.90;94.30;;;;;;5092230;28;20208;-65
2023/10/22 07:54:52;;;;;;;0.00;0.00;;;19.30;93.90;;;;;;5091240;28;20172;-64
2023/10/22 07:57:18;;;;;;;0.00;0.00;;;19.40;92.50;;;;;;5091975;28;20923;-64
2023/10/22 07:59:44;;;;;;;0.00;0.00;;;19.50;92.20;;;;;;5092162;28;20207;-66
2023/10/22 08:02:10;;;;;;;0.00;0.00;;;19.60;92.50;;;;;;5092315;28;20234;-65
2023/10/22 08:04:37;;;;;;;0.00;0.00;;;19.80;92.40;;;;;;5092188;28;20180;-65
2023/10/22 08:07:05;;;;;;;0.00;0.00;;;19.60;91.10;;;;;;5091844;28;20195;-64
2023/10/22 08:09:31;;;;;;;0.00;0.00;;;19.40;91.80;;;;;;5091399;28;20172;-64
2023/10/22 08:11:56;;;;;;;0.00;0.00;;;18.90;91.60;;;;;;5090877;28;20694;-64
2023/10/22 08:14:22;;;;;;;0.00;0.00;;;18.30;92.20;;;;;;5091102;28;20172;-64
2023/10/22 08:16:49;;;;;;;0.00;0.00;;;17.60;92.70;;;;;;5092030;28;20169;-65
2023/10/22 08:19:14;;;;;;;0.00;0.00;;;17.00;93.70;;;;;;5089946;28;20172;-65
2023/10/22 08:21:40;;;;;;;0.00;0.00;;;16.50;94.70;;;;;;5089757;28;20523;-65
2023/10/22 08:24:06;;;;;;;0.00;0.00;;;16.10;95.10;;;;;;5091123;28;20184;-65
2023/10/22 08:26:32;;;;;;;0.00;0.00;;;15.80;95.50;;;;;;5091425;28;20194;-64
2023/10/22 08:28:57;;;;;;;0.00;0.00;;;15.70;96.30;;;;;;5091100;28;20195;-64
2023/10/22 08:31:23;;;;;;;0.00;0.00;;;15.50;96.60;;;;;;5090435;28;20207;-65
2023/10/22 08:33:48;;;;;;;0.00;0.00;;;15.50;97.00;;;;;;5091604;28;20820;-65
2023/10/22 08:36:15;;;;;;;0.00;0.00;;;15.70;97.50;;;;;;5091755;28;20172;-65
2023/10/22 08:38:40;;;;;;;0.00;0.00;;;16.00;96.80;;;;;;5091796;28;20164;-65
2023/10/22 08:41:16;;;;;;;0.00;0.00;;;16.20;96.50;;;;;;5091795;28;20509;-65
2023/10/22 08:43:45;;;;;;;0.00;0.00;;;16.20;95.90;;;;;;5091183;28;20175;-65
2023/10/22 08:46:11;;;;;;;0.00;0.00;;;16.30;96.10;;;;;;5090450;28;20199;-65
2023/10/22 08:48:37;;;;;;;0.00;0.00;;;16.40;96.00;;;;;;5091509;28;20168;-65
2023/10/22 08:51:04;;;;;;;0.00;0.00;;;16.60;95.70;;;;;;5091460;28;20204;-65
2023/10/22 08:53:30;;;;;;;0.00;0.00;;;16.60;95.60;;;;;;5091734;28;20180;-65
2023/10/22 08:55:59;;;;;;;0.00;0.00;;;16.70;95.60;;;;;;5071287;28;20667;-65
2023/10/22 08:58:24;;;;;;;0.00;0.00;;;16.90;95.70;;;;;;5071299;28;20204;-65
2023/10/22 09:00:50;;;;;;;0.00;0.00;;;17.40;95.40;;;;;;5071147;28;20573;-65
2023/10/22 09:03:17;;;;;;;0.00;0.00;;;17.60;94.00;;;;;;5082277;28;20666;-65
2023/10/22 09:05:44;;;;;;;0.00;0.00;;;17.80;93.40;;;;;;5091329;28;20281;-66
2023/10/22 09:08:10;;;;;;;0.00;0.00;;;17.80;93.30;;;;;;5089396;28;20176;-65
2023/10/22 09:10:37;;;;;;;0.00;0.00;;;17.60;92.70;;;;;;5090841;28;20180;-65
2023/10/22 09:13:22;;;;;;;0.00;0.00;;;17.40;92.80;;;;;;5091503;28;20594;-65
2023/10/22 09:15:50;;;;;;;0.00;0.00;;;17.30;93.40;;;;;;5091525;28;20194;-65
2023/10/22 09:18:17;;;;;;;0.00;0.00;;;17.50;93.80;;;;;;5071267;28;20551;-65
2023/10/22 09:20:44;;;;;;;0.00;0.00;;;17.80;94.30;;;;;;5071248;28;20203;-64
2023/10/22 09:23:16;;;;;;;0.00;0.00;;;18.10;93.60;;;;;;5073165;28;20176;-65
2023/10/22 09:25:42;;;;;;;0.00;0.00;;;18.20;93.00;;;;;;5077697;28;20195;-64
2023/10/22 09:28:25;;;;;;;0.00;0.00;;;18.10;92.60;;;;;;5095632;28;20647;-64
2023/10/22 09:30:58;;;;;;;0.03;0.03;;;17.90;92.70;;;;;;5095648;28;20202;-65
2023/10/22 09:33:40;;;;;;;0.00;0.00;;;17.70;92.70;;;;;;5075533;28;20228;-66
2023/10/22 09:36:08;;;;;;;0.00;0.00;;;17.60;93.70;;;;;;5075546;28;20183;-66
2023/10/22 09:38:50;;;;;;;0.00;0.00;;;17.80;93.90;;;;;;5085827;28;20546;-66
2023/10/22 09:41:29;;;;;;;0.00;0.00;;;17.90;93.70;;;;;;5095326;28;20179;-66
2023/10/22 09:44:04;;;;;;;0.00;0.00;;;18.00;93.40;;;;;;5095339;28;20187;-65
2023/10/22 09:46:33;;;;;;;0.00;0.00;;;17.90;93.00;;;;;;5095562;28;20183;-64
2023/10/22 09:49:04;;;;;;;0.00;0.00;;;18.00;92.70;;;;;;5094265;28;20169;-67
2023/10/22 09:51:31;;;;;;;0.00;0.00;;;18.10;93.20;;;;;;5095366;28;20285;-66
2023/10/22 09:54:02;;;;;;;0.00;0.00;;;18.10;91.80;;;;;;5095150;28;20168;-68
2023/10/22 09:56:32;;;;;;;0.00;0.00;;;18.30;91.80;;;;;;5095298;28;20187;-65
2023/10/22 09:59:02;;;;;;;0.00;0.00;;;18.40;91.50;;;;;;5094147;28;20640;-65
2023/10/22 10:01:31;;;;;;;0.00;0.00;;;18.40;91.40;;;;;;5094586;28;20198;-64
2023/10/22 10:03:59;;;;;;;0.00;0.00;;;18.20;90.80;;;;;;5095078;28;20187;-64
2023/10/22 10:06:25;;;;;;;0.00;0.00;;;18.00;90.80;;;;;;5095193;28;20164;-65
2023/10/22 10:08:52;;;;;;;0.00;0.00;;;17.90;91.90;;;;;;5094593;28;20172;-65
2023/10/22 10:11:18;;;;;;;0.00;0.00;;;18.00;92.20;;;;;;5093484;28;20710;-66
2023/10/22 10:13:44;;;;;;;0.00;0.00;;;18.10;91.60;;;;;;5090129;28;20643;-64
2023/10/22 10:16:09;;;;;;;0.00;0.00;;;18.20;91.90;;;;;;5094909;28;20176;-64
2023/10/22 10:19:01;;;;;;;0.00;0.00;;;18.30;91.40;;;;;;5094507;28;20198;-65
2023/10/22 10:21:36;;;;;;;0.00;0.00;;;18.10;90.90;;;;;;5086885;28;20183;-64
2023/10/22 10:24:21;;;;;;;0.00;0.00;;;18.10;90.60;;;;;;5094338;28;20258;-64
2023/10/22 10:26:49;;;;;;;0.00;0.00;;;18.20;91.00;;;;;;5094693;28;20172;-65
2023/10/22 10:29:21;;;;;;;0.00;0.00;;;18.40;91.00;;;;;;5094643;28;20196;-63
2023/10/22 10:31:48;;;;;;;0.00;0.00;;;18.60;90.80;;;;;;5074086;28;20238;-65
2023/10/22 10:34:35;;;;;;;0.00;0.00;;;18.80;90.30;;;;;;5074080;28;20185;-64
2023/10/22 10:37:21;;;;;;;0.00;0.00;;;19.00;90.90;;;;;;5089933;28;20184;-64
2023/10/22 10:39:49;;;;;;;0.00;0.00;;;19.20;90.00;;;;;;5074401;28;20172;-64
2023/10/22 10:42:34;;;;;;;0.00;0.00;;;19.20;89.30;;;;;;5088530;28;20180;-64
2023/10/22 10:45:02;;;;;;;0.00;0.00;;;19.20;87.60;;;;;;5091558;28;20215;-64
2023/10/22 10:47:36;;;;;;;0.00;0.00;;;19.10;87.40;;;;;;5093278;28;20188;-65
2023/10/22 10:50:17;;;;;;;0.00;0.00;;;19.10;87.90;;;;;;5084270;28;20176;-64
2023/10/22 10:52:48;;;;;;;0.00;0.00;;;19.00;88.50;;;;;;5087735;28;20218;-64
2023/10/22 10:55:22;;;;;;;0.00;0.00;;;18.70;88.50;;;;;;5093003;28;20176;-64
2023/10/22 10:57:53;;;;;;;0.00;0.00;;;18.60;89.40;;;;;;5093550;28;20186;-64
2023/10/22 11:00:27;;;;;;;0.00;0.00;;;18.40;89.50;;;;;;5093733;28;20263;-64
2023/10/22 11:02:53;;;;;;;0.00;0.00;;;18.40;90.00;;;;;;5092382;28;20176;-65
2023/10/22 11:05:39;;;;;;;0.00;0.00;;;18.30;90.40;;;;;;5093955;28;20251;-64
2023/10/22 11:08:18;;;;;;;0.00;0.00;;;18.30;90.50;;;;;;5092610;28;20210;-64
2023/10/22 11:10:45;;;;;;;0.00;0.00;;;18.40;91.00;;;;;;5092755;28;20176;-64
2023/10/22 11:13:11;;;;;;;0.00;0.00;;;18.70;91.00;;;;;;5093182;28;20176;-64
2023/10/22 11:15:37;;;;;;;0.00;0.00;;;18.90;90.90;;;;;;5091689;28;20200;-64
2023/10/22 11:18:06;;;;;;;0.00;0.00;;;19.00;89.10;;;;;;5091991;28;20266;-64
2023/10/22 11:20:33;;;;;;;0.00;0.00;;;18.80;89.30;;;;;;5092497;28;20172;-64
2023/10/22 11:22:59;;;;;;;0.00;0.00;;;18.70;88.90;;;;;;5093482;28;20183;-63
2023/10/22 11:25:26;;;;;;;0.00;0.00;;;18.50;89.60;;;;;;5093323;28;20566;-63
2023/10/22 11:27:52;;;;;;;0.00;0.00;;;18.40;89.40;;;;;;5093274;28;20172;-64
2023/10/22 11:30:38;;;;;;;0.00;0.00;;;18.40;88.90;;;;;;5091814;28;20650;-64
2023/10/22 11:33:06;;;;;;;0.00;0.00;;;18.10;88.30;;;;;;5092730;28;20227;-64
2023/10/22 11:35:32;;;;;;;0.00;0.00;;;17.90;88.90;;;;;;5093059;28;20199;-64
2023/10/22 11:37:57;;;;;;;0.00;0.00;;;17.80;90.40;;;;;;5092991;28;20666;-63
2023/10/22 11:40:30;;;;;;;0.00;0.00;;;17.70;90.10;;;;;;5092997;28;20164;-64
2023/10/22 11:43:00;;;;;;;0.00;0.00;;;17.60;90.40;;;;;;5091488;28;20176;-64
2023/10/22 11:45:30;;;;;;;0.00;0.00;;;17.60;90.60;;;;;;5087557;28;20192;-64
2023/10/22 11:48:16;;;;;;;0.00;0.00;;;17.60;90.80;;;;;;5072578;28;20169;-64
2023/10/22 11:50:46;;;;;;;0.00;0.00;;;17.50;90.90;;;;;;5089474;28;20225;-65
2023/10/22 11:53:12;;;;;;;0.00;0.00;;;17.60;90.60;;;;;;5092963;28;20184;-65
2023/10/22 11:55:37;;;;;;;0.00;0.00;;;17.80;90.70;;;;;;5091451;28;20203;-64
2023/10/22 11:58:19;;;;;;;0.00;0.00;;;18.10;90.60;;;;;;5091638;28;20179;-64
2023/10/22 12:00:46;;;;;;;0.00;0.00;;;18.40;90.30;;;;;;5092875;28;20180;-64
2023/10/22 12:03:11;;;;;;;0.00;0.00;;;18.30;88.40;;;;;;5092632;28;20203;-65
2023/10/22 12:05:37;;;;;;;0.00;0.00;;;18.10;87.60;;;;;;5092532;28;20172;-64
2023/10/22 12:08:02;;;;;;;0.00;0.00;;;17.90;88.40;;;;;;5092618;28;20176;-64
2023/10/22 12:10:28;;;;;;;0.00;0.00;;;17.80;88.90;;;;;;5125362;27;20536;-65
2023/10/22 12:12:54;;;;;;;0.00;0.00;;;17.70;88.70;;;;;;5092567;28;20195;-65
2023/10/22 12:15:20;;;;;;;0.10;0.10;;;17.70;88.80;;;;;;5092506;28;20181;-64
2023/10/22 12:17:45;;;;;;;0.00;0.00;;;17.70;89.00;;;;;;5092460;28;20180;-65
2023/10/22 12:20:11;;;;;;;0.00;0.00;;;17.70;89.30;;;;;;5092364;28;20176;-64
2023/10/22 12:22:36;;;;;;;0.00;0.00;;;17.80;89.60;;;;;;5091768;28;20184;-64
2023/10/22 12:25:04;;;;;;;0.00;0.00;;;17.90;89.40;;;;;;5092338;28;20194;-64
2023/10/22 12:27:31;;;;;;;0.00;0.00;;;18.00;89.10;;;;;;5091285;28;20172;-65
2023/10/22 12:29:57;;;;;;;0.17;0.17;;;18.10;89.80;;;;;;5092115;28;20237;-65
2023/10/22 12:32:22;;;;;;;0.00;0.00;;;18.10;88.60;;;;;;5090585;28;20227;-65
2023/10/22 12:34:48;;;;;;;0.00;0.00;;;18.20;89.50;;;;;;5092266;28;20187;-65
2023/10/22 12:37:13;;;;;;;0.00;0.00;;;18.20;88.60;;;;;;5091414;28;20268;-64
2023/10/22 12:39:41;;;;;;;0.00;0.00;;;18.20;89.10;;;;;;5091607;28;20583;-65
2023/10/22 12:42:06;;;;;;;0.00;0.00;;;18.10;88.20;;;;;;5092088;28;20168;-64
2023/10/22 12:44:32;;;;;;;0.00;0.00;;;18.10;89.20;;;;;;5091857;28;20221;-64
2023/10/22 12:46:57;;;;;;;0.00;0.00;;;18.20;89.80;;;;;;5091429;28;20663;-64
2023/10/22 12:49:23;;;;;;;0.00;0.00;;;18.20;89.10;;;;;;5088013;28;20171;-63